Time;durP1;ratioP1;P1;durP2;ratioP2;P2;SDS_P1;SDS_P2;PMS_P1;PMS_P2;Temp;Humidity;BMP_temperature;BMP_pressure;BME280_temperature;BME280_humidity;BME280_pressure;Samples;Min_cycle;Max_cycle;Signal;HPM_P1;HPM_P2
2022/11/04 00:01:46;;;;;;;20.48;10.98;;;;;;;15.98;50.79;99958.41;5053211;28;20025;-42
2022/11/04 00:04:13;;;;;;;23.75;11.00;;;;;;;16.03;50.04;99961.22;5052984;28;20056;-42
2022/11/04 00:06:39;;;;;;;18.30;10.90;;;;;;;16.03;50.88;99959.34;5053001;28;20044;-42
2022/11/04 00:09:07;;;;;;;17.25;10.38;;;;;;;15.84;51.00;99955.16;5052730;28;20106;-43
2022/11/04 00:14:17;;;;;;;24.25;10.80;;;;;;;15.89;51.14;99946.38;5052448;28;20555;-43
2022/11/04 00:19:27;;;;;;;17.58;10.40;;;;;;;15.78;51.28;99953.38;5052434;28;20527;-44
2022/11/04 00:29:59;;;;;;;17.08;9.98;;;;;;;15.67;52.54;99935.38;5052689;28;20044;-43
2022/11/04 00:35:12;;;;;;;18.30;10.48;;;;;;;15.78;52.70;99951.53;5052998;28;20566;-42
2022/11/04 00:37:42;;;;;;;18.13;10.35;;;;;;;15.78;51.73;99946.16;5052585;28;20091;-45
2022/11/04 00:40:09;;;;;;;19.92;10.70;;;;;;;15.81;51.75;99944.88;5052183;28;20547;-44
2022/11/04 00:42:34;;;;;;;18.33;10.50;;;;;;;15.79;52.04;99953.16;5052339;28;20033;-44
2022/11/04 00:45:00;;;;;;;18.05;10.60;;;;;;;15.75;52.57;99948.50;5052550;28;20028;-43
2022/11/04 00:47:26;;;;;;;17.17;10.35;;;;;;;15.89;52.52;99946.38;5052569;28;20029;-42
2022/11/04 00:49:51;;;;;;;23.60;10.73;;;;;;;15.94;51.62;99952.69;5052238;28;20468;-42
2022/11/04 00:52:17;;;;;;;20.95;10.60;;;;;;;16.04;51.92;99952.09;5052437;28;20036;-42
2022/11/04 00:54:42;;;;;;;19.20;9.90;;;;;;;15.93;52.01;99961.78;5052845;28;20556;-43
2022/11/04 00:57:12;;;;;;;21.50;10.43;;;;;;;15.76;52.54;99961.69;5052279;28;20028;-42
2022/11/04 00:59:38;;;;;;;19.20;10.35;;;;;;;15.88;51.75;99960.84;5051486;28;20495;-43
2022/11/04 01:02:04;;;;;;;19.42;10.60;;;;;;;15.98;51.73;99953.84;5052057;28;20029;-41
2022/11/04 01:04:30;;;;;;;17.77;10.63;;;;;;;15.97;52.03;99946.88;5052193;28;20158;-43
2022/11/04 01:06:55;;;;;;;20.33;11.02;;;;;;;15.82;51.67;99952.69;5052459;28;20123;-44
2022/11/04 01:09:21;;;;;;;22.70;11.85;;;;;;;15.54;52.64;99945.28;5052617;28;20495;-42
2022/11/04 01:11:46;;;;;;;19.98;11.30;;;;;;;15.68;51.79;99953.13;5052443;28;20477;-43
2022/11/04 01:14:13;;;;;;;21.95;12.02;;;;;;;15.67;52.04;99946.94;5052513;28;20021;-44
2022/11/04 01:16:38;;;;;;;16.27;10.77;;;;;;;15.74;52.12;99944.16;5052580;28;20040;-43
2022/11/04 01:19:04;;;;;;;18.58;10.43;;;;;;;15.76;52.06;99947.44;5052431;28;20025;-43
2022/11/04 01:21:29;;;;;;;18.95;11.07;;;;;;;15.72;52.10;99943.56;5052371;28;20109;-44
2022/11/04 01:23:56;;;;;;;20.30;10.93;;;;;;;15.72;51.70;99938.19;5052385;28;20107;-45
2022/11/04 01:26:24;;;;;;;22.27;11.25;;;;;;;15.71;51.76;99947.31;5052357;28;20033;-43
2022/11/04 01:28:51;;;;;;;19.17;11.52;;;;;;;15.53;52.18;99938.28;5052039;28;20464;-44
2022/11/04 01:31:20;;;;;;;19.65;10.75;;;;;;;15.49;53.05;99936.31;5052281;28;20405;-43
2022/11/04 01:33:46;;;;;;;21.92;11.38;;;;;;;15.37;53.26;99944.31;5052251;28;20025;-41
2022/11/04 01:36:12;;;;;;;19.35;11.25;;;;;;;15.32;53.29;99941.50;5052315;28;20051;-43
2022/11/04 01:38:37;;;;;;;20.80;11.05;;;;;;;15.39;53.41;99939.56;5051710;28;20074;-42
2022/11/04 01:41:04;;;;;;;22.50;10.85;;;;;;;15.43;53.41;99943.41;5052008;28;20405;-43
2022/11/04 01:44:03;;;;;;;17.55;11.10;;;;;;;15.64;52.50;99947.41;5051934;28;20044;-42
2022/11/04 01:46:42;;;;;;;19.00;10.82;;;;;;;15.61;52.02;99935.28;5029396;28;20094;-44
2022/11/04 01:49:17;;;;;;;15.93;10.50;;;;;;;15.55;52.20;99938.84;5051729;28;20033;-37
2022/11/04 01:51:45;;;;;;;15.85;10.75;;;;;;;15.43;51.91;99927.31;5051999;28;20029;-37
2022/11/04 01:54:11;;;;;;;18.08;10.00;;;;;;;15.14;53.11;99935.19;5051840;28;20024;-37
2022/11/04 01:56:40;;;;;;;18.60;10.27;;;;;;;15.15;52.47;99931.44;5052019;28;20025;-37
2022/11/04 01:59:10;;;;;;;17.13;10.02;;;;;;;15.02;53.70;99915.53;5051821;28;20067;-38
2022/11/04 02:01:36;;;;;;;17.40;10.73;;;;;;;14.96;53.20;99929.88;5051783;28;20350;-37
2022/11/04 02:06:47;;;;;;;21.20;11.30;;;;;;;14.90;53.99;99922.75;5052065;28;20032;-36
2022/11/04 02:09:14;;;;;;;18.75;11.32;;;;;;;14.95;54.18;99918.34;5051489;28;20025;-36
2022/11/04 02:14:24;;;;;;;19.67;10.80;;;;;;;14.83;53.62;99910.25;5051241;28;20040;-37
2022/11/04 02:16:50;;;;;;;20.20;11.20;;;;;;;14.94;53.64;99910.53;5051556;28;20033;-37
2022/11/04 02:19:24;;;;;;;17.80;10.63;;;;;;;14.94;52.97;99902.47;5051526;28;20029;-37
2022/11/04 02:22:20;;;;;;;24.58;11.57;;;;;;;14.97;53.15;99902.03;5051344;28;20041;-37
2022/11/04 02:25:22;;;;;;;18.42;10.70;;;;;;;14.59;55.11;99903.97;5051362;28;20061;-37
2022/11/04 02:28:12;;;;;;;19.50;11.40;;;;;;;14.58;55.15;99902.34;5051301;28;20037;-37
2022/11/04 02:30:51;;;;;;;16.80;11.35;;;;;;;14.65;55.10;99894.22;5051248;28;20036;-37
2022/11/04 02:33:33;;;;;;;17.80;10.20;;;;;;;14.62;54.02;99894.66;5051170;28;20046;-37
2022/11/04 02:35:58;;;;;;;19.40;10.63;;;;;;;14.53;53.82;99890.66;5051349;28;20039;-37
2022/11/04 02:38:37;;;;;;;16.90;10.68;;;;;;;14.57;53.71;99881.16;5051046;28;20029;-37
2022/11/04 02:41:44;;;;;;;18.65;10.90;;;;;;;14.73;54.14;99885.88;5050744;28;20066;-37
2022/11/04 02:44:15;;;;;;;22.67;10.98;;;;;;;14.72;54.22;99889.59;5050786;28;20024;-37
2022/11/04 02:47:07;;;;;;;20.42;11.23;;;;;;;14.64;54.27;99890.72;5050796;28;20506;-37
2022/11/04 02:50:07;;;;;;;21.98;10.85;;;;;;;14.69;54.05;99891.91;5050897;28;20033;-37
2022/11/04 02:53:00;;;;;;;17.60;10.93;;;;;;;14.46;54.25;99888.06;5049690;28;20098;-37
2022/11/04 02:55:34;;;;;;;20.92;11.13;;;;;;;14.43;54.77;99894.69;5051158;28;20029;-37
2022/11/04 02:58:03;;;;;;;20.90;11.07;;;;;;;14.33;55.44;99889.03;5051154;28;20035;-37
2022/11/04 03:00:30;;;;;;;20.77;11.02;;;;;;;14.55;54.75;99884.03;5050965;28;20025;-37
2022/11/04 03:03:03;;;;;;;21.60;12.07;;;;;;;14.60;53.73;99886.88;5051093;28;20079;-37
2022/11/04 03:05:36;;;;;;;22.30;11.85;;;;;;;14.43;54.80;99875.09;5050881;28;20347;-37
2022/11/04 03:08:07;;;;;;;24.10;12.93;;;;;;;14.39;54.28;99882.78;5050460;28;20116;-37
2022/11/04 03:10:41;;;;;;;22.85;12.43;;;;;;;14.56;53.80;99882.16;5050827;28;20033;-37
2022/11/04 03:13:18;;;;;;;24.67;12.27;;;;;;;14.70;53.26;99878.31;5050580;28;20037;-37
2022/11/04 03:16:00;;;;;;;21.70;12.48;;;;;;;14.74;52.38;99876.00;5050554;28;20500;-37
2022/11/04 03:18:38;;;;;;;23.92;13.02;;;;;;;14.71;53.42;99884.47;5050208;28;20021;-37
2022/11/04 03:21:08;;;;;;;21.40;12.48;;;;;;;14.66;53.63;99888.66;5050215;28;20122;-37
2022/11/04 03:23:34;;;;;;;19.38;12.32;;;;;;;14.47;53.87;99895.88;5051845;28;20131;-37
2022/11/04 03:26:13;;;;;;;27.30;12.60;;;;;;;14.33;54.70;99890.88;5054515;28;20133;-37
2022/11/04 03:29:06;;;;;;;21.65;12.85;;;;;;;14.46;54.46;99886.19;5053872;28;20035;-37
2022/11/04 03:31:46;;;;;;;21.23;12.88;;;;;;;14.47;54.56;99892.38;5054419;28;20016;-37
2022/11/04 03:34:11;;;;;;;21.27;12.32;;;;;;;14.24;54.92;99893.03;5054629;28;20028;-37
2022/11/04 03:36:37;;;;;;;23.98;12.95;;;;;;;14.15;55.41;99895.22;5054200;28;20033;-36
2022/11/04 03:39:02;;;;;;;22.98;11.93;;;;;;;14.31;54.81;99901.00;5054432;28;20025;-36
2022/11/04 03:41:37;;;;;;;23.00;12.85;;;;;;;14.05;55.45;99901.09;5054340;28;20029;-36
2022/11/04 03:44:03;;;;;;;27.67;12.80;;;;;;;13.93;56.19;99897.50;5054209;28;20025;-37
2022/11/04 03:46:29;;;;;;;26.20;12.23;;;;;;;14.19;55.01;99887.56;5054361;28;20035;-37
2022/11/04 03:48:56;;;;;;;24.48;13.10;;;;;;;14.22;54.62;99895.97;5054093;28;20025;-37
2022/11/04 03:51:22;;;;;;;28.17;13.63;;;;;;;14.17;54.22;99895.81;5054160;28;20025;-36
2022/11/04 03:53:47;;;;;;;29.02;13.80;;;;;;;14.06;55.10;99894.69;5054092;28;20032;-36
2022/11/04 03:56:19;;;;;;;24.45;13.80;;;;;;;13.97;55.07;99887.16;5054287;28;20484;-36
2022/11/04 03:58:59;;;;;;;24.30;13.52;;;;;;;14.00;54.99;99894.75;5053871;28;20090;-36
2022/11/04 04:01:49;;;;;;;22.80;13.63;;;;;;;13.94;55.17;99880.41;5054387;28;20059;-38
2022/11/04 04:04:28;;;;;;;22.58;13.70;;;;;;;13.82;55.17;99885.69;5054941;28;20033;-40
2022/11/04 04:07:01;;;;;;;30.30;14.57;;;;;;;13.79;54.93;99878.09;5054181;28;20036;-37
2022/11/04 04:13:04;;;;;;;34.17;15.25;;;;;;;13.94;54.67;99876.94;5012776;28;20036;-37
2022/11/04 04:15:41;;;;;;;45.45;16.80;;;;;;;13.60;56.50;99887.94;5011719;28;20069;-37
2022/11/04 04:18:12;;;;;;;34.60;15.43;;;;;;;13.70;56.13;99890.13;5041233;28;20037;-37
2022/11/04 04:20:40;;;;;;;30.00;15.75;;;;;;;13.82;55.97;99885.69;5053515;28;20025;-37
2022/11/04 04:29:03;;;;;;;33.55;15.27;;;;;;;14.05;56.91;99890.38;5054364;28;20054;-37
2022/11/04 04:31:51;;;;;;;32.10;17.77;;;;;;;14.18;55.31;99875.22;5053212;28;20032;-37
2022/11/04 04:34:19;;;;;;;43.95;21.90;;;;;;;14.18;54.17;99891.25;5052155;28;20033;-36
2022/11/04 04:36:51;;;;;;;32.38;18.13;;;;;;;13.96;54.62;99883.69;5051296;28;20036;-37
2022/11/04 04:45:04;;;;;;;29.55;16.50;;;;;;;14.14;54.20;99898.09;5052688;28;20041;-37
2022/11/04 04:47:39;;;;;;;;;;;;;;;14.45;53.57;99887.25;5052977;28;20111;-37
2022/11/04 04:50:06;;;;;;;30.52;15.60;;;;;;;14.31;53.14;99884.94;5052919;28;19908;-37
2022/11/04 04:52:36;;;;;;;24.33;15.13;;;;;;;14.53;56.70;99894.16;5053075;28;20037;-37
2022/11/04 04:55:01;;;;;;;31.33;16.15;;;;;;;14.56;53.45;99892.88;5052887;28;20040;-36
2022/11/04 04:57:27;;;;;;;31.58;16.25;;;;;;;14.58;52.66;99897.00;5051939;28;20021;-36
2022/11/04 04:59:52;;;;;;;31.70;16.10;;;;;;;14.49;52.66;99898.31;5052724;28;20029;-37
2022/11/04 05:02:18;;;;;;;35.35;16.23;;;;;;;14.18;53.71;99889.41;5052572;28;20048;-36
2022/11/04 05:04:43;;;;;;;32.78;16.60;;;;;;;14.06;53.52;99892.00;5052523;28;20033;-37
2022/11/04 05:07:09;;;;;;;28.02;15.82;;;;;;;14.15;53.79;99886.38;5052668;28;20151;-36
2022/11/04 05:09:35;;;;;;;30.17;16.70;;;;;;;14.20;53.42;99891.84;5052853;28;20036;-44
2022/11/04 05:12:00;;;;;;;33.15;17.13;;;;;;;14.17;53.40;99893.13;5052993;28;20047;-36
2022/11/04 05:14:26;;;;;;;39.40;17.38;;;;;;;14.11;52.83;99896.72;5052672;28;20455;-36
2022/11/04 05:16:51;;;;;;;29.85;17.77;;;;;;;14.11;52.86;99893.19;5051880;28;20399;-36
2022/11/04 05:19:17;;;;;;;34.08;17.52;;;;;;;14.17;52.80;99895.00;5052163;28;20013;-36
2022/11/04 05:21:42;;;;;;;27.98;16.45;;;;;;;14.12;52.96;99900.19;5051990;28;20013;-37
2022/11/04 05:24:09;;;;;;;32.80;17.27;;;;;;;13.97;53.53;99893.34;5051643;28;20444;-37
2022/11/04 05:26:34;;;;;;;32.15;16.58;;;;;;;14.21;52.98;99905.03;5052093;28;20025;-37
2022/11/04 05:29:00;;;;;;;37.80;16.50;;;;;;;14.18;52.47;99904.66;5051174;28;20055;-36
2022/11/04 05:31:26;;;;;;;27.65;16.25;;;;;;;14.14;52.43;99906.94;5052379;28;20031;-38
2022/11/04 05:33:52;;;;;;;28.10;15.48;;;;;;;14.08;53.16;99913.19;5052025;28;20023;-36
2022/11/04 05:36:17;;;;;;;31.42;15.40;;;;;;;14.33;52.92;99909.63;5051862;28;20059;-37
2022/11/04 05:38:48;;;;;;;28.15;15.73;;;;;;;14.39;52.83;99909.56;5051597;28;20040;-37
2022/11/04 05:41:24;;;;;;;33.70;20.33;;;;;;;14.36;54.72;99917.22;5051828;28;20024;-36
2022/11/04 05:43:51;;;;;;;33.90;19.08;;;;;;;14.01;55.43;99923.97;5051336;28;20520;-36
2022/11/04 05:46:17;;;;;;;34.03;17.00;;;;;;;14.15;54.37;99903.25;5050449;28;20021;-38
2022/11/04 05:48:42;;;;;;;38.50;21.70;;;;;;;14.44;53.87;99933.78;5049409;28;20025;-37
2022/11/04 05:51:12;;;;;;;36.72;15.70;;;;;;;14.64;52.35;99924.72;5048913;28;20112;-37
2022/11/04 05:53:38;;;;;;;30.27;15.07;;;;;;;14.90;51.77;99931.59;5048744;28;20078;-37
2022/11/04 05:56:03;;;;;;;24.60;14.43;;;;;;;15.07;51.32;99933.63;5049791;28;20029;-37
2022/11/04 05:58:29;;;;;;;44.08;15.70;;;;;;;15.07;50.69;99922.91;5049883;28;20021;-36
2022/11/04 06:01:10;;;;;;;31.92;15.35;;;;;;;14.87;51.02;99934.75;5050475;28;20092;-36
2022/11/04 06:03:35;;;;;;;27.70;14.82;;;;;;;14.72;51.49;99927.09;5051069;28;20068;-37
2022/11/04 06:06:01;;;;;;;27.45;14.93;;;;;;;14.91;51.33;99935.06;5050780;28;20105;-37
2022/11/04 06:08:26;;;;;;;29.58;15.35;;;;;;;14.89;51.14;99945.22;5050976;28;20032;-36
2022/11/04 06:10:51;;;;;;;25.35;15.15;;;;;;;15.06;51.14;99951.59;5050845;28;20017;-36
2022/11/04 06:13:17;;;;;;;29.85;15.80;;;;;;;15.14;50.45;99951.25;5051477;28;20096;-37
2022/11/04 06:15:42;;;;;;;31.08;17.45;;;;;;;15.25;50.49;99949.66;5050718;28;20481;-37
2022/11/04 06:18:07;;;;;;;33.13;17.30;;;;;;;15.11;50.79;99951.69;5050933;28;20025;-36
2022/11/04 06:20:33;;;;;;;32.55;16.77;;;;;;;15.25;50.29;99958.53;5050674;28;20124;-38
2022/11/04 06:22:58;;;;;;;25.10;14.60;;;;;;;15.37;49.95;99961.22;5050552;28;20025;-37
2022/11/04 06:25:24;;;;;;;31.73;14.73;;;;;;;15.20;50.44;99965.59;5050051;28;20583;-38
2022/11/04 06:27:49;;;;;;;32.95;14.48;;;;;;;15.41;50.51;99969.63;5050239;28;20028;-37
2022/11/04 06:30:15;;;;;;;25.88;14.52;;;;;;;15.53;49.95;99961.59;5050527;28;20200;-37
2022/11/04 06:32:40;;;;;;;28.65;14.88;;;;;;;15.59;49.73;99968.72;5050526;28;20021;-36
2022/11/04 06:35:07;;;;;;;27.17;14.68;;;;;;;15.74;48.87;99960.25;5050312;28;20021;-38
2022/11/04 06:37:33;;;;;;;28.67;14.82;;;;;;;15.64;49.67;99963.50;5050709;28;20104;-37
2022/11/04 06:39:59;;;;;;;32.63;15.32;;;;;;;15.53;49.01;99935.59;5050535;28;20471;-37
2022/11/04 06:42:25;;;;;;;34.08;15.23;;;;;;;15.86;48.96;99957.56;5049707;28;20032;-38
2022/11/04 06:44:51;;;;;;;32.75;15.35;;;;;;;15.86;49.56;99963.78;5050168;28;20029;-36
2022/11/04 06:47:17;;;;;;;24.15;14.50;;;;;;;15.74;49.15;99939.59;5050331;28;20028;-37
2022/11/04 06:49:42;;;;;;;33.60;15.57;;;;;;;15.86;49.44;99971.84;5050306;28;20139;-36
2022/11/04 06:52:08;;;;;;;32.83;14.75;;;;;;;15.94;49.17;99966.13;5050182;28;20033;-36
2022/11/04 06:54:34;;;;;;;27.05;14.98;;;;;;;15.94;49.31;99958.06;5050308;28;20120;-36
2022/11/04 06:56:59;;;;;;;27.15;15.02;;;;;;;16.05;48.41;99963.66;5050100;28;20059;-36
2022/11/04 06:59:25;;;;;;;24.88;14.05;;;;;;;16.21;48.85;99974.50;5049568;28;20031;-37
2022/11/04 07:01:53;;;;;;;27.67;14.85;;;;;;;16.39;47.25;99970.88;5050134;28;20063;-37
2022/11/04 07:04:18;;;;;;;32.30;14.70;;;;;;;16.18;48.22;99976.84;5050198;28;20036;-36
2022/11/04 07:06:44;;;;;;;32.80;15.07;;;;;;;16.20;48.15;99959.47;5049975;28;20021;-37
2022/11/04 07:09:14;;;;;;;30.70;14.70;;;;;;;16.40;47.77;99967.13;5050212;28;20037;-37
2022/11/04 07:11:41;;;;;;;27.95;14.73;;;;;;;16.39;47.91;99960.13;5050123;28;20063;-36
2022/11/04 07:14:07;;;;;;;28.25;14.02;;;;;;;16.45;47.53;99962.91;5050091;28;20029;-37
2022/11/04 07:16:33;;;;;;;26.27;14.90;;;;;;;16.42;47.91;99964.19;5049991;28;20055;-36
2022/11/04 07:18:58;;;;;;;29.88;14.43;;;;;;;16.38;47.85;99963.84;5050168;28;20370;-37
2022/11/04 07:21:24;;;;;;;34.30;14.20;;;;;;;16.14;47.77;99963.06;5049864;28;20064;-37
2022/11/04 07:23:50;;;;;;;27.13;13.82;;;;;;;16.02;48.20;99957.69;5049811;28;20155;-37
2022/11/04 07:26:15;;;;;;;30.48;15.93;;;;;;;16.33;48.09;99958.38;5049732;28;20098;-37
2022/11/04 07:28:41;;;;;;;35.47;15.25;;;;;;;16.38;47.60;99946.94;5049793;28;20037;-37
2022/11/04 07:31:07;;;;;;;29.83;15.23;;;;;;;16.56;47.11;99951.31;5049615;28;20463;-37
2022/11/04 07:33:33;;;;;;;22.10;14.32;;;;;;;16.58;47.19;99941.97;5049339;28;20604;-37
2022/11/04 07:36:06;;;;;;;25.92;13.95;;;;;;;16.56;47.21;99935.19;5049626;28;20108;-36
2022/11/04 07:38:32;;;;;;;22.90;13.52;;;;;;;16.72;47.22;99928.28;5049299;28;20615;-38
2022/11/04 07:40:59;;;;;;;22.45;13.27;;;;;;;16.77;47.97;99925.66;5049410;28;20128;-37
2022/11/04 07:43:24;;;;;;;20.98;13.32;;;;;;;16.89;47.11;99931.84;5049261;28;20469;-37
2022/11/04 07:46:08;;;;;;;24.13;13.93;;;;;;;16.93;46.27;99929.50;5049576;28;20029;-37
2022/11/04 07:48:35;;;;;;;25.67;14.23;;;;;;;16.66;46.98;99918.47;5050074;28;20052;-35
2022/11/04 07:51:01;;;;;;;30.38;14.13;;;;;;;16.87;46.80;99927.75;5050094;28;20017;-37
2022/11/04 07:53:28;;;;;;;31.77;14.18;;;;;;;16.97;46.28;99927.97;5049631;28;20108;-37
2022/11/04 07:55:54;;;;;;;34.65;16.38;;;;;;;17.11;46.10;99918.53;5049508;28;20082;-39
2022/11/04 07:58:20;;;;;;;33.72;15.38;;;;;;;17.05;47.46;99919.50;5048863;28;20025;-36
2022/11/04 08:00:46;;;;;;;32.25;15.75;;;;;;;17.11;47.25;99915.84;5049389;28;20134;-36
2022/11/04 08:03:11;;;;;;;29.20;16.10;;;;;;;17.22;47.84;99916.03;5049805;28;20108;-36
2022/11/04 08:05:37;;;;;;;29.42;16.13;;;;;;;16.98;48.09;99900.84;5050041;28;20023;-37
2022/11/04 08:08:03;;;;;;;34.78;16.33;;;;;;;17.17;48.68;99903.28;5050010;28;20025;-37
2022/11/04 08:10:29;;;;;;;31.02;15.48;;;;;;;17.08;49.33;99897.50;5052502;28;20414;-37
2022/11/04 08:12:54;;;;;;;30.02;15.13;;;;;;;16.94;50.26;99902.34;5053063;28;20037;-36
2022/11/04 08:15:19;;;;;;;31.92;15.27;;;;;;;16.86;50.00;99899.25;5053134;28;20390;-37
2022/11/04 08:17:45;;;;;;;30.08;16.30;;;;;;;16.92;50.37;99895.59;5053199;28;20033;-36
2022/11/04 08:20:11;;;;;;;33.75;17.10;;;;;;;16.61;51.49;99895.00;5052974;28;20086;-37
2022/11/04 08:22:39;;;;;;;30.80;16.33;;;;;;;16.61;51.16;99897.69;5052907;28;20385;-38
2022/11/04 08:25:05;;;;;;;28.17;15.88;;;;;;;16.56;50.92;99887.69;5053090;28;20064;-36
2022/11/04 08:27:31;;;;;;;28.23;16.33;;;;;;;16.52;50.84;99883.81;5052895;28;20033;-36
2022/11/04 08:29:56;;;;;;;32.33;16.40;;;;;;;16.92;49.98;99882.97;5053128;28;20029;-37
2022/11/04 08:32:22;;;;;;;33.45;16.13;;;;;;;17.14;49.58;99883.09;5053252;28;20075;-37
2022/11/04 08:34:48;;;;;;;35.75;16.08;;;;;;;16.58;51.31;99871.31;5053041;28;20024;-37
2022/11/04 08:37:14;;;;;;;29.67;15.77;;;;;;;17.08;49.66;99878.69;5052575;28;20021;-37
2022/11/04 08:39:40;;;;;;;27.45;15.15;;;;;;;17.16;49.28;99880.97;5052828;28;20029;-37
2022/11/04 08:42:06;;;;;;;29.60;15.93;;;;;;;17.26;48.93;99874.94;5052674;28;20036;-38
2022/11/04 08:44:32;;;;;;;28.63;15.82;;;;;;;17.28;49.60;99880.09;5052450;28;20040;-36
2022/11/04 08:46:59;;;;;;;27.75;16.33;;;;;;;17.04;50.35;99869.50;5052436;28;20461;-36
2022/11/04 08:49:25;;;;;;;31.92;16.58;;;;;;;17.38;49.13;99856.88;5052467;28;20036;-36
2022/11/04 08:51:58;;;;;;;27.33;15.85;;;;;;;17.56;48.98;99858.47;5052350;28;20025;-36
2022/11/04 08:54:25;;;;;;;27.60;15.65;;;;;;;17.64;48.39;99853.72;5052734;28;20033;-39
2022/11/04 08:56:50;;;;;;;25.85;15.57;;;;;;;17.76;48.59;99838.28;5052303;28;20035;-35
2022/11/04 08:59:16;;;;;;;31.38;15.77;;;;;;;18.20;47.82;99843.75;5052346;28;20108;-37
2022/11/04 09:01:42;;;;;;;29.70;15.38;;;;;;;18.05;48.17;99840.84;5052488;28;20029;-38
2022/11/04 09:04:10;;;;;;;28.48;15.25;;;;;;;18.15;47.87;99832.91;5052266;28;20034;-37
2022/11/04 09:06:40;;;;;;;28.85;15.70;;;;;;;18.30;47.88;99838.47;5052415;28;20021;-37
2022/11/04 09:09:07;;;;;;;27.45;15.88;;;;;;;18.41;47.75;99834.00;5051960;28;20031;-35
2022/11/04 09:11:37;;;;;;;25.35;15.63;;;;;;;18.39;47.33;99819.16;5052057;28;20025;-35
2022/11/04 09:14:03;;;;;;;25.52;14.95;;;;;;;17.83;48.69;99824.66;5051870;28;20171;-37
2022/11/04 09:16:30;;;;;;;24.30;14.43;;;;;;;17.06;51.37;99827.03;5051755;28;20542;-36
2022/11/04 09:18:57;;;;;;;24.67;14.13;;;;;;;17.00;51.28;99818.09;5051632;28;20029;-36
2022/11/04 09:21:23;;;;;;;26.98;15.05;;;;;;;17.71;49.36;99814.00;5051361;28;20037;-36
2022/11/04 09:23:49;;;;;;;24.08;15.02;;;;;;;18.01;48.57;99807.41;5051339;28;20053;-37
2022/11/04 09:26:15;;;;;;;25.02;14.55;;;;;;;18.11;49.09;99802.97;5051792;28;20037;-37
2022/11/04 09:28:41;;;;;;;22.92;14.27;;;;;;;18.55;48.89;99805.59;5051588;28;20107;-36
2022/11/04 09:31:09;;;;;;;26.77;15.07;;;;;;;18.10;49.15;99798.63;5051730;28;20059;-36
2022/11/04 09:33:34;;;;;;;24.77;14.23;;;;;;;18.16;49.54;99799.50;5052597;28;20109;-36
2022/11/04 09:36:00;;;;;;;24.20;13.88;;;;;;;18.65;48.14;99796.78;5051771;28;20409;-36
2022/11/04 09:38:26;;;;;;;24.25;13.65;;;;;;;19.01;47.17;99799.00;5051906;28;20081;-37
2022/11/04 09:40:52;;;;;;;23.83;14.60;;;;;;;19.10;46.83;99790.19;5051642;28;20025;-36
2022/11/04 09:43:47;;;;;;;22.33;13.63;;;;;;;19.31;46.62;99787.63;5051423;28;20393;-38
2022/11/04 09:46:13;;;;;;;26.65;14.40;;;;;;;18.60;48.15;99777.88;5051548;28;20417;-37
2022/11/04 09:48:47;;;;;;;24.92;14.30;;;;;;;18.61;48.11;99784.09;5051408;28;20426;-36
2022/11/04 09:51:15;;;;;;;23.23;13.85;;;;;;;18.53;48.36;99774.56;5051449;28;20028;-39
2022/11/04 09:53:47;;;;;;;21.85;14.50;;;;;;;19.01;47.82;99767.47;5051013;28;20021;-38
2022/11/04 09:56:17;;;;;;;25.60;15.18;;;;;;;19.72;46.25;99750.06;5051014;28;20029;-37
2022/11/04 09:58:43;;;;;;;25.77;14.68;;;;;;;20.35;44.59;99754.59;5051039;28;20047;-37
2022/11/04 10:01:11;;;;;;;28.67;14.80;;;;;;;19.07;46.75;99754.81;5050984;28;20115;-37
2022/11/04 10:04:07;;;;;;;27.58;14.30;;;;;;;18.21;49.15;99740.31;5050769;28;20104;-36
2022/11/04 10:07:01;;;;;;;27.08;14.73;;;;;;;18.55;49.01;99732.81;5051116;28;20077;-36
2022/11/04 10:09:42;;;;;;;27.02;13.82;;;;;;;19.22;47.15;99727.16;5050245;28;20020;-37
2022/11/04 10:12:32;;;;;;;27.33;14.25;;;;;;;19.78;46.03;99730.16;5051161;28;20063;-37
2022/11/04 10:15:12;;;;;;;25.45;14.90;;;;;;;19.72;45.59;99733.88;5050865;28;20036;-37
2022/11/04 10:17:58;;;;;;;;;;;;;;;20.45;43.83;99723.00;5051156;28;20041;-36
2022/11/04 10:20:32;;;;;;;23.67;14.25;;;;;;;19.89;44.59;99680.47;5050864;28;19982;-37
2022/11/04 10:23:09;;;;;;;22.85;14.35;;;;;;;20.19;44.39;99711.34;5051017;28;20115;-36
2022/11/04 10:25:53;;;;;;;23.65;14.02;;;;;;;20.79;43.60;99708.97;5050732;28;20040;-35
2022/11/04 10:28:23;;;;;;;21.50;13.35;;;;;;;20.89;43.55;99703.53;5050748;28;20108;-36
2022/11/04 10:30:50;;;;;;;22.55;13.38;;;;;;;21.08;43.26;99706.47;5050401;28;20248;-37
2022/11/04 10:33:26;;;;;;;26.50;14.13;;;;;;;21.46;42.05;99687.19;5049648;28;20051;-37
2022/11/04 10:35:58;;;;;;;26.08;13.95;;;;;;;21.81;41.35;99679.97;5048667;28;20059;-36
2022/11/04 10:38:38;;;;;;;26.33;14.13;;;;;;;21.87;40.95;99678.84;5047671;28;20464;-36
2022/11/04 10:41:20;;;;;;;28.20;14.50;;;;;;;22.15;40.50;99671.09;5047116;28;20028;-37
2022/11/04 10:43:46;;;;;;;21.48;13.48;;;;;;;21.17;42.01;99668.03;5050247;28;20025;-35
2022/11/04 10:46:30;;;;;;;24.80;13.68;;;;;;;21.15;42.32;99659.38;5050687;28;20108;-36
2022/11/04 10:49:03;;;;;;;27.70;13.88;;;;;;;21.29;41.97;99655.00;5050192;28;20032;-36
2022/11/04 10:51:28;;;;;;;23.65;14.27;;;;;;;21.37;41.97;99656.34;5050391;28;20040;-36
2022/11/04 10:53:56;;;;;;;22.35;13.32;;;;;;;22.03;40.48;99647.06;5050482;28;20473;-37
2022/11/04 10:56:39;;;;;;;22.02;13.45;;;;;;;22.41;39.64;99636.50;5050323;28;20081;-35
2022/11/04 10:59:33;;;;;;;22.52;13.82;;;;;;;22.20;39.80;99633.94;5050408;28;20031;-36
2022/11/04 11:02:02;;;;;;;26.58;13.40;;;;;;;22.32;39.43;99635.50;5050317;28;20527;-37
2022/11/04 11:04:36;;;;;;;25.30;13.95;;;;;;;21.99;40.04;99635.16;5048738;28;20029;-37
2022/11/04 11:07:04;;;;;;;20.60;13.07;;;;;;;22.16;39.51;99627.47;5049686;28;20133;-36
2022/11/04 11:09:34;;;;;;;22.75;13.48;;;;;;;22.43;38.70;99615.34;5049756;28;20089;-36
2022/11/04 11:12:12;;;;;;;31.58;14.00;;;;;;;22.02;40.22;99627.28;5049328;28;20040;-36
2022/11/04 11:14:39;;;;;;;20.52;14.20;;;;;;;22.51;39.19;99617.44;5048808;28;20378;-36
2022/11/04 11:17:33;;;;;;;27.05;18.02;;;;;;;23.30;38.07;99614.41;5050166;28;20120;-37
2022/11/04 11:20:04;;;;;;;22.80;13.57;;;;;;;23.47;37.37;99616.63;5049825;28;20020;-36
2022/11/04 11:22:43;;;;;;;25.05;12.27;;;;;;;23.13;37.69;99614.91;5050408;28;20527;-37
2022/11/04 11:25:25;;;;;;;20.45;13.25;;;;;;;22.08;39.21;99600.94;5049655;28;20156;-36
2022/11/04 11:27:53;;;;;;;19.40;13.13;;;;;;;22.25;38.79;99606.00;5049938;28;20029;-37
2022/11/04 11:30:23;;;;;;;22.92;13.52;;;;;;;22.63;38.59;99587.22;5049704;28;20055;-37
2022/11/04 11:32:52;;;;;;;;;;;;;;;22.99;38.09;99595.75;5050348;28;20048;-37
2022/11/04 11:35:20;;;;;;;25.70;12.60;;;;;;;23.05;37.53;99587.59;5050210;28;19947;-37
2022/11/04 11:37:46;;;;;;;22.15;13.77;;;;;;;23.00;37.73;99578.38;5050288;28;20365;-36
2022/11/04 11:40:27;;;;;;;20.00;12.07;;;;;;;22.77;39.58;99582.72;5049891;28;20106;-37
2022/11/04 11:42:53;;;;;;;21.38;13.10;;;;;;;23.38;37.86;99574.94;5050181;28;20035;-38
2022/11/04 11:45:22;;;;;;;25.58;13.38;;;;;;;23.37;37.00;99573.34;5052900;28;20036;-37
2022/11/04 11:47:53;;;;;;;18.35;11.98;;;;;;;23.50;38.54;99572.59;5053677;28;20500;-36
2022/11/04 11:50:23;;;;;;;26.90;13.18;;;;;;;22.55;38.80;99564.25;5054280;28;20029;-38
2022/11/04 11:52:51;;;;;;;21.60;12.68;;;;;;;22.74;38.73;99571.63;5054414;28;20033;-36
2022/11/04 11:55:33;;;;;;;19.10;13.25;;;;;;;22.82;37.72;99568.28;5054601;28;20025;-37
2022/11/04 11:58:30;;;;;;;21.92;12.85;;;;;;;23.01;36.56;99561.00;5054236;28;20032;-38
2022/11/04 12:01:05;;;;;;;19.70;12.07;;;;;;;23.07;36.65;99552.84;5053981;28;20025;-37
2022/11/04 12:03:34;;;;;;;18.73;11.57;;;;;;;23.09;37.12;99545.19;5055358;28;20028;-36
2022/11/04 12:06:16;;;;;;;15.65;11.02;;;;;;;23.33;37.93;99518.00;5043349;28;20050;-37
2022/11/04 12:09:06;;;;;;;19.70;12.48;;;;;;;23.39;36.73;99546.69;5042354;28;20029;-37
2022/11/04 12:12:09;;;;;;;15.05;10.75;;;;;;;23.66;38.25;99545.22;5054168;28;20070;-37